Time;durP1;ratioP1;P1;durP2;ratioP2;P2;SDS_P1;SDS_P2;PMS_P1;PMS_P2;Temp;Humidity;BMP_temperature;BMP_pressure;BME280_temperature;BME280_humidity;BME280_pressure;Samples;Min_cycle;Max_cycle;Signal;HPM_P1;HPM_P2
2021/03/13 00:01:57;;;;;;;2.90;1.00;;;;;;;7.03;55.01;96291.59;4982124;28;20042;-63
2021/03/13 00:04:22;;;;;;;4.85;1.00;;;;;;;6.79;55.12;96306.16;4987770;28;20073;-60
2021/03/13 00:06:48;;;;;;;4.03;1.10;;;;;;;6.75;56.15;96297.13;4985111;28;20074;-62
2021/03/13 00:09:13;;;;;;;7.55;1.05;;;;;;;6.71;55.68;96305.22;4946154;28;20442;-62
2021/03/13 00:11:38;;;;;;;3.05;1.52;;;;;;;6.73;55.91;96302.94;4984330;28;20048;-61
2021/03/13 00:14:04;;;;;;;3.65;0.90;;;;;;;6.80;54.17;96314.00;4978420;28;20050;-64
2021/03/13 00:16:30;;;;;;;6.03;1.38;;;;;;;6.85;54.12;96308.28;4984513;28;20047;-58
2021/03/13 00:18:55;;;;;;;3.70;1.23;;;;;;;6.86;53.91;96287.28;4983451;28;20137;-61
2021/03/13 00:21:21;;;;;;;5.25;1.20;;;;;;;6.91;54.00;96302.56;4960435;28;20034;-61
2021/03/13 00:23:46;;;;;;;3.72;0.93;;;;;;;6.96;54.05;96286.75;4966223;28;20049;-61
2021/03/13 00:26:12;;;;;;;3.58;1.08;;;;;;;7.01;54.32;96297.38;4976005;28;20049;-61
2021/03/13 00:28:37;;;;;;;3.17;1.00;;;;;;;7.03;54.38;96291.59;4983083;28;20080;-61
2021/03/13 00:31:02;;;;;;;3.80;1.20;;;;;;;7.01;54.37;96286.50;4981011;28;20042;-63
2021/03/13 00:33:31;;;;;;;3.63;1.13;;;;;;;7.02;54.19;96295.44;4980524;28;20137;-59
2021/03/13 00:35:56;;;;;;;6.68;1.20;;;;;;;7.01;54.03;96302.06;4982709;28;20046;-61
2021/03/13 00:38:23;;;;;;;2.08;1.00;;;;;;;6.99;54.70;96299.69;4974138;28;20047;-58
2021/03/13 00:40:49;;;;;;;7.20;1.40;;;;;;;7.00;54.59;96314.06;4983179;28;20046;-58
2021/03/13 00:43:15;;;;;;;2.70;1.38;;;;;;;7.02;54.96;96317.22;4976165;28;20130;-63
2021/03/13 00:45:42;;;;;;;1.27;0.60;;;;;;;6.99;56.09;96326.13;4981105;28;20125;-61
2021/03/13 00:48:09;;;;;;;1.65;1.15;;;;;;;7.01;56.37;96318.38;4971898;28;20153;-63
2021/03/13 00:50:37;;;;;;;4.47;1.40;;;;;;;6.87;57.80;96327.00;4983644;28;20069;-61
2021/03/13 00:53:03;;;;;;;2.22;1.00;;;;;;;6.75;58.58;96281.59;5000433;28;20439;-65
2021/03/13 00:55:31;;;;;;;2.08;1.00;;;;;;;6.67;59.29;96307.84;4998478;28;20446;-60
2021/03/13 00:57:57;;;;;;;7.38;1.05;;;;;;;6.58;59.91;96320.84;5000861;28;20057;-61
2021/03/13 01:00:24;;;;;;;5.07;0.95;;;;;;;6.50;60.97;96317.16;4997224;28;20505;-61
2021/03/13 01:02:50;;;;;;;3.88;1.00;;;;;;;6.41;61.70;96323.88;5016011;28;20038;-62
2021/03/13 01:05:16;;;;;;;1.58;0.93;;;;;;;6.37;62.16;96320.28;5013934;28;20446;-63
2021/03/13 01:07:42;;;;;;;1.40;1.00;;;;;;;6.35;62.34;96312.47;5004293;28;20038;-60
2021/03/13 01:10:17;;;;;;;2.75;0.93;;;;;;;6.34;62.71;96329.94;4994104;28;20046;-60
2021/03/13 01:12:43;;;;;;;2.65;0.80;;;;;;;6.26;63.29;96328.16;5001494;28;20041;-61
2021/03/13 01:15:12;;;;;;;7.80;1.00;;;;;;;6.27;64.09;96333.25;4979250;28;20581;-62
2021/03/13 01:17:38;;;;;;;4.00;1.23;;;;;;;6.29;66.39;96319.31;5002008;28;20038;-60
2021/03/13 01:20:05;;;;;;;2.50;0.98;;;;;;;6.15;67.52;96316.19;4995990;28;20545;-62
2021/03/13 01:22:31;;;;;;;2.10;1.00;;;;;;;5.97;68.98;96313.78;4999603;28;20569;-61
2021/03/13 01:24:57;;;;;;;1.58;0.85;;;;;;;5.89;69.41;96312.75;4994126;28;20039;-63
2021/03/13 01:27:22;;;;;;;3.80;1.17;;;;;;;5.84;70.24;96310.28;4978131;28;20961;-61
2021/03/13 01:29:48;;;;;;;2.63;1.17;;;;;;;5.82;71.20;96315.28;4991089;28;20423;-60
2021/03/13 01:32:13;;;;;;;6.45;1.38;;;;;;;5.85;70.24;96306.44;4980339;28;20105;-59
2021/03/13 01:34:38;;;;;;;2.17;1.33;;;;;;;5.81;70.10;96302.03;4986647;28;20145;-62
2021/03/13 01:37:05;;;;;;;3.28;1.20;;;;;;;5.81;70.90;96300.09;4985101;28;20043;-65
2021/03/13 01:39:30;;;;;;;4.28;1.17;;;;;;;5.80;70.15;96274.06;4987728;28;20046;-61
2021/03/13 01:41:56;;;;;;;4.80;1.30;;;;;;;5.77;70.66;96282.13;4987047;28;20054;-59
2021/03/13 01:44:21;;;;;;;5.13;1.38;;;;;;;5.69;70.65;96271.03;4982469;28;22275;-64
2021/03/13 01:46:47;;;;;;;3.58;1.15;;;;;;;5.66;71.23;96268.22;4991238;28;20073;-60
2021/03/13 01:49:18;;;;;;;4.07;1.13;;;;;;;5.63;71.71;96266.97;4986910;28;20046;-58
2021/03/13 01:51:45;;;;;;;5.45;1.13;;;;;;;5.65;70.45;96261.19;4988042;28;20061;-60
2021/03/13 01:54:11;;;;;;;1.05;0.90;;;;;;;5.65;70.48;96253.84;4981797;28;20076;-61
2021/03/13 01:56:38;;;;;;;6.65;1.92;;;;;;;5.72;68.70;96253.25;4990675;28;20501;-60
2021/03/13 01:59:04;;;;;;;4.93;1.30;;;;;;;5.71;68.81;96257.13;4961010;28;20081;-64
2021/03/13 02:01:29;;;;;;;1.65;1.10;;;;;;;5.68;68.51;96247.72;4986288;28;20398;-62
2021/03/13 02:03:58;;;;;;;1.55;1.10;;;;;;;5.70;67.64;96247.38;4970637;28;20129;-58
2021/03/13 02:06:23;;;;;;;2.33;1.25;;;;;;;5.77;67.81;96244.06;4964577;28;20205;-61
2021/03/13 02:09:34;;;;;;;4.22;0.90;;;;;;;5.85;66.67;96235.78;4990057;28;20088;-61
2021/03/13 02:12:24;;;;;;;3.08;1.17;;;;;;;5.87;66.34;96251.72;4938977;28;20058;-61
2021/03/13 02:15:02;;;;;;;3.42;1.20;;;;;;;5.97;66.19;96239.59;4999051;28;20053;-60
2021/03/13 02:17:56;;;;;;;6.40;1.27;;;;;;;5.98;65.90;96228.38;4983363;28;20569;-59
2021/03/13 02:20:30;;;;;;;4.65;1.10;;;;;;;5.98;65.71;96222.94;4979424;28;20128;-61
2021/03/13 02:22:57;;;;;;;4.88;1.20;;;;;;;5.97;65.74;96226.78;4999942;28;20044;-63
2021/03/13 02:25:49;;;;;;;2.70;1.17;;;;;;;5.99;65.51;96223.72;4997328;28;20153;-62
2021/03/13 02:28:20;;;;;;;2.22;1.10;;;;;;;5.99;65.11;96215.56;4979115;28;20041;-63
2021/03/13 02:30:47;;;;;;;3.90;1.08;;;;;;;5.96;65.30;96217.06;5014169;28;20066;-65
2021/03/13 02:33:24;;;;;;;2.55;1.30;;;;;;;6.00;65.36;96225.31;4983515;28;20569;-62
2021/03/13 02:35:56;;;;;;;1.55;0.90;;;;;;;6.03;64.96;96209.09;4982804;28;20105;-60
2021/03/13 02:38:31;;;;;;;3.03;1.20;;;;;;;5.95;65.18;96201.84;4983562;28;20894;-58
2021/03/13 02:41:04;;;;;;;2.80;1.20;;;;;;;5.97;64.78;96212.41;4998282;28;20510;-63
2021/03/13 02:43:31;;;;;;;1.13;1.02;;;;;;;5.93;64.92;96215.78;4993682;28;20104;-61
2021/03/13 02:46:00;;;;;;;2.25;1.10;;;;;;;5.91;64.81;96193.59;4988305;28;20053;-61
2021/03/13 02:48:29;;;;;;;4.45;1.30;;;;;;;5.92;65.51;96200.63;4982083;28;20054;-60
2021/03/13 02:50:56;;;;;;;7.87;3.27;;;;;;;5.95;65.22;96193.69;4981830;28;20447;-63
2021/03/13 02:53:24;;;;;;;3.05;1.10;;;;;;;5.99;64.56;96193.81;4975007;28;20297;-61
2021/03/13 02:55:50;;;;;;;3.95;1.02;;;;;;;6.02;64.74;96193.91;4987629;28;20377;-62
2021/03/13 02:58:18;;;;;;;2.25;0.93;;;;;;;6.11;64.15;96191.03;4981579;28;20105;-64
2021/03/13 03:00:45;;;;;;;2.65;1.00;;;;;;;6.12;64.27;96196.13;4989726;28;20093;-61
2021/03/13 03:03:12;;;;;;;2.08;0.95;;;;;;;6.28;62.03;96192.59;4984167;28;20042;-61
2021/03/13 03:05:38;;;;;;;3.90;1.00;;;;;;;6.29;62.29;96188.75;4991550;28;20070;-63
2021/03/13 03:08:06;;;;;;;3.28;0.90;;;;;;;6.26;62.45;96186.72;4997326;28;20053;-64
2021/03/13 03:10:36;;;;;;;3.70;1.52;;;;;;;6.26;62.30;96178.56;4986040;28;20394;-61
2021/03/13 03:13:04;;;;;;;4.80;1.00;;;;;;;6.45;61.49;96177.88;4999164;28;20711;-64
2021/03/13 03:15:32;;;;;;;4.57;0.90;;;;;;;6.37;60.78;96176.09;4990524;28;20073;-60
2021/03/13 03:18:02;;;;;;;2.20;1.00;;;;;;;6.30;61.72;96172.09;4989294;28;20069;-63
2021/03/13 03:20:30;;;;;;;2.03;0.82;;;;;;;6.35;61.20;96170.22;4992136;28;20108;-60
2021/03/13 03:22:56;;;;;;;3.67;1.08;;;;;;;6.20;62.24;96178.03;5000097;28;20037;-62
2021/03/13 03:25:21;;;;;;;3.45;1.20;;;;;;;6.15;62.21;96177.53;4983791;28;22215;-60
2021/03/13 03:27:52;;;;;;;2.25;0.98;;;;;;;6.09;62.41;96187.88;4988922;28;20097;-61
2021/03/13 03:30:27;;;;;;;2.22;0.93;;;;;;;6.17;61.27;96180.69;4985975;28;20166;-61
2021/03/13 03:32:53;;;;;;;1.80;0.93;;;;;;;6.21;61.18;96171.47;4980892;28;20590;-61
2021/03/13 03:35:21;;;;;;;1.60;1.00;;;;;;;6.19;61.16;96153.91;4983387;28;20096;-60
2021/03/13 03:37:48;;;;;;;3.50;1.05;;;;;;;6.16;61.26;96169.03;4986715;28;20564;-63
2021/03/13 03:40:16;;;;;;;1.83;0.90;;;;;;;6.03;61.82;96151.19;4983322;28;20070;-60
2021/03/13 03:42:50;;;;;;;4.13;0.88;;;;;;;6.08;61.94;96140.06;4996904;28;20376;-61
2021/03/13 03:45:20;;;;;;;3.83;0.70;;;;;;;6.09;62.06;96141.66;4966028;28;20097;-62
2021/03/13 03:47:46;;;;;;;3.30;1.30;;;;;;;6.09;61.79;96139.72;4997657;28;20085;-61
2021/03/13 03:50:15;;;;;;;3.78;2.00;;;;;;;6.07;62.09;96141.22;4982560;28;20053;-62
2021/03/13 03:52:43;;;;;;;3.63;0.90;;;;;;;6.06;62.46;96147.78;4990551;28;20057;-61
2021/03/13 03:55:11;;;;;;;2.45;0.90;;;;;;;6.01;62.75;96148.03;4986165;28;20052;-61
2021/03/13 03:57:39;;;;;;;2.95;1.50;;;;;;;5.99;62.35;96148.38;4975903;28;20069;-63
2021/03/13 04:00:06;;;;;;;3.42;1.02;;;;;;;5.96;63.04;96148.28;4986078;28;20045;-63
2021/03/13 04:02:35;;;;;;;3.45;1.10;;;;;;;5.98;62.56;96141.38;4987632;28;20060;-59
2021/03/13 04:05:02;;;;;;;2.80;0.70;;;;;;;5.98;62.65;96140.56;4990657;28;20050;-60
2021/03/13 04:07:28;;;;;;;3.90;0.93;;;;;;;5.92;62.72;96145.47;4984228;28;20085;-59
2021/03/13 04:09:54;;;;;;;4.32;0.93;;;;;;;5.89;62.86;96136.09;4973148;28;20045;-59
2021/03/13 04:12:22;;;;;;;4.25;0.90;;;;;;;5.82;62.96;96132.41;4985069;28;20046;-60
2021/03/13 04:14:48;;;;;;;1.00;0.70;;;;;;;5.89;62.67;96127.94;4991117;28;20058;-59
2021/03/13 04:17:15;;;;;;;4.35;0.73;;;;;;;5.81;63.13;96137.03;4969011;28;20037;-61
2021/03/13 04:19:41;;;;;;;3.33;0.95;;;;;;;5.83;62.94;96134.75;4991183;28;20046;-61
2021/03/13 04:22:07;;;;;;;1.70;0.90;;;;;;;5.89;62.26;96140.75;4985386;28;20077;-62
2021/03/13 04:24:33;;;;;;;3.60;1.33;;;;;;;5.83;63.17;96144.84;4973209;28;20140;-56
2021/03/13 04:27:00;;;;;;;2.33;1.00;;;;;;;5.76;63.58;96142.72;4993634;28;20046;-60
2021/03/13 04:29:26;;;;;;;3.05;1.15;;;;;;;5.81;62.96;96138.97;4979721;28;20046;-59
2021/03/13 04:31:52;;;;;;;2.08;0.90;;;;;;;5.71;63.55;96129.41;4991870;28;20098;-61
2021/03/13 04:34:18;;;;;;;3.28;0.95;;;;;;;5.66;63.71;96129.66;4983602;28;20443;-60
2021/03/13 04:36:45;;;;;;;4.00;0.98;;;;;;;5.68;63.74;96130.88;4997453;28;20042;-62
2021/03/13 04:39:11;;;;;;;2.67;1.02;;;;;;;5.69;63.75;96129.75;4989999;28;20383;-61
2021/03/13 04:41:37;;;;;;;3.20;0.80;;;;;;;5.63;63.80;96122.19;4975101;28;20539;-61
2021/03/13 04:44:03;;;;;;;5.22;2.35;;;;;;;5.72;63.19;96117.38;4988881;28;20128;-63
2021/03/13 04:46:34;;;;;;;4.00;1.10;;;;;;;5.73;63.34;96111.63;4971861;28;20056;-60
2021/03/13 04:49:05;;;;;;;3.78;0.90;;;;;;;5.75;62.58;96108.53;4993285;28;20042;-60
2021/03/13 04:51:31;;;;;;;1.13;1.00;;;;;;;5.81;62.86;96117.22;4992780;28;20066;-62
2021/03/13 04:53:57;;;;;;;2.53;0.90;;;;;;;5.78;62.80;96107.03;4990781;28;20084;-59
2021/03/13 04:56:22;;;;;;;1.95;0.85;;;;;;;5.83;62.62;96112.22;4992214;28;20505;-60
2021/03/13 04:58:47;;;;;;;4.03;1.27;;;;;;;5.99;61.61;96093.25;4997281;28;20050;-62
2021/03/13 05:01:13;;;;;;;5.55;1.25;;;;;;;5.98;61.61;96103.34;4981389;28;20531;-58
2021/03/13 05:03:38;;;;;;;1.63;0.90;;;;;;;5.88;62.33;96098.38;4971382;28;20046;-62
2021/03/13 05:06:05;;;;;;;4.28;1.23;;;;;;;5.92;62.28;96091.09;4982203;28;20137;-65
2021/03/13 05:08:30;;;;;;;1.88;0.80;;;;;;;5.89;62.67;96091.81;4988758;28;20049;-56
2021/03/13 05:10:55;;;;;;;2.83;1.00;;;;;;;5.80;62.89;96085.75;4991206;28;20521;-59
2021/03/13 05:13:21;;;;;;;4.32;0.98;;;;;;;5.82;63.37;96078.84;4982697;28;20457;-63
2021/03/13 05:15:46;;;;;;;2.47;0.90;;;;;;;5.81;63.14;96092.75;4988901;28;20469;-59
2021/03/13 05:18:12;;;;;;;2.47;0.80;;;;;;;5.79;63.53;96084.19;4983445;28;20045;-59
2021/03/13 05:20:37;;;;;;;3.58;1.00;;;;;;;5.89;62.53;96091.81;4976977;28;20116;-59
2021/03/13 05:23:02;;;;;;;3.10;1.63;;;;;;;5.88;62.56;96087.50;4990831;28;20048;-63
2021/03/13 05:25:28;;;;;;;4.45;1.00;;;;;;;5.89;62.44;96089.88;4972323;28;20041;-57
2021/03/13 05:27:53;;;;;;;1.98;0.98;;;;;;;5.80;62.99;96094.72;4990753;28;20049;-58
2021/03/13 05:30:19;;;;;;;4.35;0.85;;;;;;;5.77;63.33;96092.69;4980940;28;20061;-56
2021/03/13 05:32:45;;;;;;;6.82;0.90;;;;;;;5.78;63.00;96088.84;4986868;28;20398;-59
2021/03/13 05:35:11;;;;;;;4.45;1.05;;;;;;;5.75;62.76;96087.59;4979018;28;20038;-58
2021/03/13 05:37:38;;;;;;;3.42;1.30;;;;;;;5.75;63.28;96081.38;4975805;28;20056;-57
2021/03/13 05:40:05;;;;;;;2.72;0.95;;;;;;;5.73;62.68;96084.44;4973841;28;20073;-63
2021/03/13 05:42:31;;;;;;;3.25;1.33;;;;;;;5.75;62.87;96079.44;4988821;28;20046;-61
2021/03/13 05:44:57;;;;;;;5.05;1.25;;;;;;;5.73;62.80;96081.72;4990007;28;20393;-59
2021/03/13 05:47:23;;;;;;;2.60;1.10;;;;;;;5.81;62.66;96085.41;4987396;28;20570;-60
2021/03/13 05:50:14;;;;;;;1.35;0.98;;;;;;;5.77;62.67;96086.47;4982121;28;20057;-60
2021/03/13 05:52:40;;;;;;;7.90;1.15;;;;;;;5.87;62.40;96077.75;4987046;28;20042;-58
2021/03/13 05:55:08;;;;;;;4.15;1.10;;;;;;;5.86;62.27;96081.63;4986904;28;20045;-64
2021/03/13 05:57:34;;;;;;;3.30;0.95;;;;;;;5.83;62.75;96080.41;4977501;28;20053;-60
2021/03/13 06:00:01;;;;;;;7.55;0.93;;;;;;;5.75;62.76;96081.38;4985729;28;20098;-60
2021/03/13 06:02:26;;;;;;;5.60;0.70;;;;;;;5.82;62.94;96084.28;4983909;28;20054;-62
2021/03/13 06:04:53;;;;;;;5.65;1.05;;;;;;;5.79;62.82;96086.91;4992494;28;20042;-62
2021/03/13 06:07:21;;;;;;;2.05;0.80;;;;;;;5.76;62.82;96088.38;4996822;28;20384;-60
2021/03/13 06:09:50;;;;;;;3.15;0.73;;;;;;;5.74;63.23;96087.94;4993653;28;20396;-63
2021/03/13 06:12:15;;;;;;;4.80;1.10;;;;;;;5.81;63.11;96090.84;4970280;28;20033;-60
2021/03/13 06:14:41;;;;;;;3.78;0.80;;;;;;;5.82;62.79;96100.56;4985733;28;20054;-60
2021/03/13 06:17:06;;;;;;;2.20;1.02;;;;;;;5.90;62.83;96115.13;4984339;28;20053;-64
2021/03/13 06:19:52;;;;;;;7.55;1.13;;;;;;;6.10;61.37;96097.81;4988866;28;20411;-61
2021/03/13 06:22:39;;;;;;;3.28;0.90;;;;;;;6.18;60.75;96101.47;4956321;28;20047;-60
2021/03/13 06:25:25;;;;;;;3.03;1.17;;;;;;;6.27;60.49;96093.91;4955599;28;20046;-63
2021/03/13 06:28:03;;;;;;;3.13;1.20;;;;;;;6.56;59.86;96088.34;4973043;28;20058;-63
2021/03/13 06:30:40;;;;;;;3.80;0.77;;;;;;;6.78;59.35;96081.41;4995633;28;20085;-60
2021/03/13 06:33:17;;;;;;;4.32;0.98;;;;;;;7.04;58.31;96083.50;4973215;28;20069;-58
2021/03/13 06:35:43;;;;;;;2.63;0.98;;;;;;;7.16;57.89;96088.00;4989710;28;20046;-62
2021/03/13 06:38:18;;;;;;;2.65;0.85;;;;;;;7.56;56.87;96078.63;4969643;28;20042;-62
2021/03/13 06:40:45;;;;;;;2.33;0.82;;;;;;;7.86;55.75;96070.59;4993006;28;20075;-61
2021/03/13 06:43:19;;;;;;;2.63;0.80;;;;;;;7.63;56.82;96079.56;4978774;28;20039;-63
2021/03/13 06:45:56;;;;;;;3.83;1.02;;;;;;;7.50;58.03;96072.69;4996604;28;20459;-61
2021/03/13 06:48:52;;;;;;;5.07;1.10;;;;;;;7.55;57.40;96075.13;4976490;28;20104;-61
2021/03/13 06:51:43;;;;;;;4.57;0.93;;;;;;;7.93;56.28;96059.03;4964211;28;20062;-64
2021/03/13 06:54:09;;;;;;;5.40;0.90;;;;;;;8.63;54.14;96056.97;4954578;28;20105;-64
2021/03/13 06:56:37;;;;;;;3.80;0.80;;;;;;;8.69;53.00;96042.63;4972936;28;20046;-62
2021/03/13 06:59:17;;;;;;;6.93;1.70;;;;;;;8.71;53.01;96053.94;4983295;28;20383;-67
2021/03/13 07:01:43;;;;;;;5.20;0.90;;;;;;;8.56;53.26;96052.19;4990191;28;20550;-60
2021/03/13 07:04:11;;;;;;;4.32;0.85;;;;;;;9.10;51.72;96056.41;4975767;28;20466;-64
2021/03/13 07:06:46;;;;;;;4.60;1.08;;;;;;;9.15;51.54;96066.22;4981376;28;20471;-62
2021/03/13 07:09:11;;;;;;;3.72;0.90;;;;;;;9.05;51.99;96058.66;4976403;28;20038;-62
2021/03/13 07:11:37;;;;;;;2.00;0.80;;;;;;;8.69;53.18;96059.00;4979921;28;20065;-62
2021/03/13 07:14:02;;;;;;;3.10;0.80;;;;;;;8.41;53.08;96048.47;4981478;28;20467;-67
2021/03/13 07:16:38;;;;;;;4.80;1.05;;;;;;;8.51;52.67;96052.53;4990387;28;20462;-64
2021/03/13 07:19:07;;;;;;;3.88;1.00;;;;;;;8.62;53.08;96047.97;5007421;28;20042;-61
2021/03/13 07:21:34;;;;;;;3.13;1.33;;;;;;;8.92;52.21;96039.78;5013426;28;20452;-63
2021/03/13 07:24:00;;;;;;;4.22;1.35;;;;;;;9.66;50.59;96043.69;4997066;28;20057;-59
2021/03/13 07:26:31;;;;;;;2.10;0.70;;;;;;;10.03;48.85;96053.00;4977539;28;20614;-63
2021/03/13 07:28:59;;;;;;;3.33;1.00;;;;;;;9.93;48.45;96049.78;4996944;28;20045;-60
2021/03/13 07:31:27;;;;;;;1.45;0.90;;;;;;;9.29;50.89;96043.72;4988758;28;20449;-62
2021/03/13 07:33:58;;;;;;;3.15;1.13;;;;;;;8.84;51.81;96040.06;5004377;28;20052;-61
2021/03/13 07:36:24;;;;;;;2.38;1.02;;;;;;;8.88;51.84;96030.00;4999336;28;20053;-60
2021/03/13 07:38:51;;;;;;;3.63;1.08;;;;;;;9.37;50.73;96029.75;5002889;28;20398;-58
2021/03/13 07:41:18;;;;;;;3.22;1.30;;;;;;;9.62;49.19;96031.94;4999112;28;20132;-63
2021/03/13 07:43:45;;;;;;;2.13;0.88;;;;;;;10.47;47.82;96031.06;4996351;28;20464;-61
2021/03/13 07:46:12;;;;;;;5.50;1.00;;;;;;;10.97;46.88;96024.28;4990460;28;20026;-63
2021/03/13 07:48:39;;;;;;;4.07;0.98;;;;;;;10.78;46.25;96020.66;5003501;28;20129;-61
2021/03/13 07:51:05;;;;;;;2.63;0.70;;;;;;;11.08;45.25;96005.91;4993666;28;20507;-63
2021/03/13 07:53:34;;;;;;;2.28;0.80;;;;;;;11.53;44.23;96005.63;4978202;28;20049;-67
2021/03/13 07:56:03;;;;;;;3.92;0.70;;;;;;;12.55;42.12;95999.69;5013824;28;20372;-63
2021/03/13 07:58:29;;;;;;;6.50;1.00;;;;;;;12.21;41.59;96003.69;5010379;28;20042;-63
2021/03/13 08:00:58;;;;;;;2.67;1.00;;;;;;;12.17;42.12;95999.38;4995064;28;20045;-60
2021/03/13 08:03:26;;;;;;;3.47;0.80;;;;;;;12.00;42.31;95995.47;4998701;28;20546;-60
2021/03/13 08:05:59;;;;;;;2.63;1.10;;;;;;;12.43;41.69;95992.66;5005366;28;20056;-64
2021/03/13 08:08:39;;;;;;;1.70;0.80;;;;;;;12.57;41.41;95998.13;5004189;28;20342;-63
2021/03/13 08:11:09;;;;;;;1.45;0.80;;;;;;;12.42;41.97;95999.31;4998532;28;20045;-66
2021/03/13 08:13:38;;;;;;;4.28;0.80;;;;;;;11.89;42.08;95987.22;4990026;28;20050;-60
2021/03/13 08:16:13;;;;;;;3.13;0.90;;;;;;;11.34;43.39;95971.09;4989685;28;20105;-67
2021/03/13 08:18:40;;;;;;;2.03;0.70;;;;;;;10.93;42.86;95991.38;4983959;28;20061;-61
2021/03/13 08:21:17;;;;;;;2.08;0.50;;;;;;;11.11;42.43;95980.47;4979735;28;20211;-64
2021/03/13 08:23:50;;;;;;;1.67;0.50;;;;;;;10.27;43.75;95981.25;4992665;28;20049;-61
2021/03/13 08:26:21;;;;;;;4.53;0.70;;;;;;;10.45;43.15;95967.69;4973681;28;20129;-64
2021/03/13 08:28:50;;;;;;;1.88;0.60;;;;;;;10.62;42.90;95960.72;4981736;28;20101;-63
2021/03/13 08:34:02;;;;;;;2.05;0.98;;;;;;;10.60;43.56;95984.19;4983762;28;20050;-62
2021/03/13 08:36:30;;;;;;;7.75;3.08;;;;;;;10.72;42.97;95970.16;4974600;28;20050;-60
2021/03/13 08:39:11;;;;;;;4.53;0.93;;;;;;;10.60;43.79;95971.28;4986209;28;20038;-61
2021/03/13 08:44:32;;;;;;;6.75;1.42;;;;;;;10.46;43.98;95974.75;4996328;28;20112;-63
2021/03/13 08:47:07;;;;;;;;;;;;;;;10.93;43.44;95980.41;5006151;28;20418;-61
2021/03/13 08:49:34;;;;;;;6.55;0.88;;;;;;;11.07;43.34;95955.00;4993386;28;20448;-58
2021/03/13 08:52:06;;;;;;;1.70;0.55;;;;;;;11.16;42.88;95963.63;4997953;28;20050;-69
2021/03/13 08:54:40;;;;;;;5.78;1.67;;;;;;;11.08;42.70;95962.06;5002148;28;20568;-65
2021/03/13 08:57:36;;;;;;;2.15;1.20;;;;;;;11.18;42.43;95966.78;4994238;28;20052;-62
2021/03/13 09:00:04;;;;;;;2.67;0.60;;;;;;;11.77;41.65;95955.47;4993829;28;20038;-60
2021/03/13 09:02:33;;;;;;;2.70;0.70;;;;;;;11.08;43.10;95943.66;4999556;28;20048;-61
2021/03/13 09:05:12;;;;;;;3.25;0.75;;;;;;;11.02;43.48;95958.09;5002174;28;20042;-61
2021/03/13 09:07:38;;;;;;;2.00;0.80;;;;;;;11.29;43.25;95925.69;5000035;28;20434;-64
2021/03/13 09:10:05;;;;;;;4.78;0.75;;;;;;;10.50;43.53;95936.44;4992046;28;20045;-67
2021/03/13 09:12:33;;;;;;;1.98;0.60;;;;;;;10.31;43.34;95927.31;5015724;28;20060;-62
2021/03/13 09:15:03;;;;;;;6.32;0.80;;;;;;;10.17;43.73;95921.75;5013883;28;20054;-56
2021/03/13 09:17:30;;;;;;;;;;;;;;;10.21;43.25;95902.63;5001415;28;20046;-58
2021/03/13 09:20:01;;;;;;;1.45;0.70;;;;;;;10.18;43.10;95904.19;5002393;28;19961;-60
2021/03/13 09:22:26;;;;;;;6.32;0.80;;;;;;;10.61;42.25;95896.19;4996146;28;20802;-61
2021/03/13 09:24:56;;;;;;;2.28;0.70;;;;;;;10.97;41.99;95898.22;4987001;28;20133;-57
2021/03/13 09:27:37;;;;;;;7.20;0.90;;;;;;;11.52;41.43;95884.16;4982811;28;20524;-62
2021/03/13 09:30:06;;;;;;;0.63;0.60;;;;;;;11.42;40.06;95863.03;4994960;28;20081;-65
2021/03/13 09:32:32;;;;;;;3.63;0.50;;;;;;;11.87;39.90;95855.13;5000615;28;20050;-64
2021/03/13 09:34:57;;;;;;;0.65;0.40;;;;;;;11.48;40.49;95856.72;5002251;28;20071;-60
2021/03/13 09:37:30;;;;;;;2.05;0.60;;;;;;;11.73;40.10;95842.22;4995402;28;20531;-62
2021/03/13 09:40:15;;;;;;;0.70;0.50;;;;;;;11.92;39.22;95849.28;4987905;28;20053;-58
2021/03/13 09:42:42;;;;;;;1.88;0.60;;;;;;;11.60;39.17;95844.59;4989074;28;20046;-61
2021/03/13 09:45:11;;;;;;;9.90;0.63;;;;;;;11.29;38.63;95805.06;4981376;28;20053;-67
2021/03/13 09:47:40;;;;;;;1.50;0.63;;;;;;;11.47;38.95;95840.69;4989392;28;20050;-61
2021/03/13 09:50:10;;;;;;;2.15;0.50;;;;;;;11.83;38.11;95818.69;4976775;28;20042;-63
2021/03/13 09:52:37;;;;;;;;;;;;;;;11.69;36.79;95824.22;5000580;28;20038;-60
2021/03/13 09:55:05;;;;;;;0.52;0.50;;;;;;;11.58;36.07;95796.81;4998849;28;20627;-66
2021/03/13 09:57:31;;;;;;;2.10;0.50;;;;;;;11.51;36.29;95825.00;4994293;28;20042;-59
2021/03/13 09:59:57;;;;;;;1.92;0.52;;;;;;;11.36;37.07;95817.97;4990498;28;20053;-60
2021/03/13 10:02:23;;;;;;;0.90;0.30;;;;;;;11.36;36.71;95827.00;4976223;28;20142;-62
2021/03/13 10:04:50;;;;;;;1.23;0.60;;;;;;;11.25;36.49;95820.72;4981591;28;20057;-64
2021/03/13 10:07:15;;;;;;;0.73;0.45;;;;;;;11.26;36.12;95772.97;4980244;28;20126;-61
2021/03/13 10:09:56;;;;;;;1.48;0.40;;;;;;;11.19;35.63;95808.59;4984468;28;20462;-58
2021/03/13 10:12:30;;;;;;;2.28;0.50;;;;;;;11.42;36.13;95814.44;4975956;28;20038;-60
2021/03/13 10:15:09;;;;;;;1.67;0.43;;;;;;;11.46;35.80;95798.75;4984164;28;20050;-61
2021/03/13 10:17:53;;;;;;;0.52;0.30;;;;;;;11.45;36.41;95796.41;4983241;28;20075;-63
2021/03/13 10:20:19;;;;;;;0.93;0.47;;;;;;;11.44;34.61;95773.69;4981559;28;20037;-63
2021/03/13 10:22:45;;;;;;;0.77;0.50;;;;;;;11.36;33.61;95779.59;5000472;28;20050;-62
2021/03/13 10:25:10;;;;;;;1.08;0.40;;;;;;;11.46;33.39;95789.75;4995516;28;20048;-59
2021/03/13 10:27:36;;;;;;;2.40;0.50;;;;;;;11.51;33.23;95753.72;4999602;28;20521;-58
2021/03/13 10:30:04;;;;;;;3.63;0.55;;;;;;;11.62;32.94;95735.28;5000647;28;20104;-59
2021/03/13 10:32:32;;;;;;;0.52;0.40;;;;;;;11.71;33.43;95765.03;4991127;28;20117;-60
2021/03/13 10:35:08;;;;;;;17.77;0.80;;;;;;;11.67;32.89;95737.59;4992550;28;20501;-59
2021/03/13 10:37:41;;;;;;;5.22;0.50;;;;;;;11.67;33.03;95710.19;5000568;28;20045;-63
2021/03/13 10:40:36;;;;;;;0.50;0.40;;;;;;;11.59;33.46;95765.44;4980086;28;20042;-64
2021/03/13 10:43:35;;;;;;;1.70;0.40;;;;;;;11.85;33.93;95758.72;4996486;28;20049;-67
2021/03/13 10:46:11;;;;;;;3.13;0.40;;;;;;;11.80;34.02;95710.50;4993080;28;20041;-61
2021/03/13 10:48:58;;;;;;;2.00;0.50;;;;;;;11.63;33.19;95749.75;4988379;28;20364;-60
2021/03/13 10:51:35;;;;;;;0.45;0.35;;;;;;;11.71;33.37;95737.59;4975392;28;20111;-58
2021/03/13 10:54:04;;;;;;;2.70;0.40;;;;;;;12.24;33.10;95776.97;4980286;28;20050;-62
2021/03/13 10:56:41;;;;;;;0.30;0.30;;;;;;;12.74;32.26;95756.69;4979660;28;20042;-61
2021/03/13 10:59:07;;;;;;;0.30;0.30;;;;;;;13.10;32.24;95757.19;4975021;28;20051;-68
2021/03/13 11:01:32;;;;;;;1.25;0.30;;;;;;;13.09;31.29;95736.38;4979457;28;20146;-61
2021/03/13 11:03:58;;;;;;;0.68;0.32;;;;;;;13.11;32.02;95768.97;4973777;28;20133;-61
2021/03/13 11:06:26;;;;;;;2.55;0.30;;;;;;;13.01;32.46;95757.63;4989465;28;20619;-61
2021/03/13 11:08:53;;;;;;;0.70;0.30;;;;;;;12.65;32.31;95757.13;4986115;28;20397;-63
2021/03/13 11:11:20;;;;;;;0.40;0.38;;;;;;;12.55;32.59;95752.47;4990709;28;20420;-61
2021/03/13 11:13:45;;;;;;;0.40;0.40;;;;;;;12.46;32.74;95757.66;4994317;28;20041;-62
2021/03/13 11:16:11;;;;;;;0.70;0.40;;;;;;;12.22;33.41;95743.66;4987953;28;20101;-62
2021/03/13 11:18:36;;;;;;;0.80;0.50;;;;;;;12.23;33.22;95745.25;5001008;28;20080;-60
2021/03/13 11:21:02;;;;;;;0.50;0.40;;;;;;;12.47;33.13;95743.50;5001036;28;20047;-61
2021/03/13 11:23:28;;;;;;;5.13;0.50;;;;;;;12.34;33.60;95745.19;4988353;28;20081;-64
2021/03/13 11:25:53;;;;;;;0.60;0.35;;;;;;;12.35;33.40;95722.00;4994690;28;20436;-61
2021/03/13 11:28:18;;;;;;;1.13;0.40;;;;;;;12.15;32.43;95686.06;4997638;28;20042;-69
2021/03/13 11:30:44;;;;;;;0.50;0.50;;;;;;;12.36;33.00;95696.91;4990557;28;20099;-60
2021/03/13 11:33:10;;;;;;;0.95;0.50;;;;;;;12.92;31.77;95712.56;5000882;28;20037;-63
2021/03/13 11:35:35;;;;;;;0.93;0.45;;;;;;;13.21;31.13;95718.59;5001865;28;20103;-62
2021/03/13 11:38:01;;;;;;;5.07;0.57;;;;;;;13.68;30.92;95677.63;5001950;28;20102;-63
2021/03/13 11:40:27;;;;;;;2.63;0.38;;;;;;;13.98;30.50;95681.59;4957968;28;20046;-61
2021/03/13 11:42:55;;;;;;;0.40;0.40;;;;;;;14.02;30.11;95663.03;5004356;28;20065;-59
2021/03/13 11:45:22;;;;;;;1.00;0.40;;;;;;;13.53;30.71;95674.28;4998867;28;20053;-63
2021/03/13 11:47:48;;;;;;;0.50;0.40;;;;;;;13.50;31.98;95683.34;4997036;28;20507;-64
2021/03/13 11:50:17;;;;;;;0.57;0.30;;;;;;;13.05;32.29;95671.63;4990775;28;20049;-60
2021/03/13 11:52:43;;;;;;;0.80;0.30;;;;;;;12.98;31.75;95691.69;5008345;28;20097;-63
2021/03/13 11:55:10;;;;;;;0.98;0.52;;;;;;;12.67;31.53;95630.38;5009383;28;20096;-64